sensor_id;sensor_type;location;lat;lon;timestamp;pressure;altitude;pressure_sealevel;temperature;humidity
50464;BME280;62167;38.552;-121.478;2022-07-30T00:02:23;100661.56;;;33.75;31.62
50464;BME280;62167;38.552;-121.478;2022-07-30T00:04:50;100656.50;;;33.77;32.09
50464;BME280;62167;38.552;-121.478;2022-07-30T00:07:16;100653.84;;;33.81;31.33
50464;BME280;62167;38.552;-121.478;2022-07-30T00:09:43;100658.44;;;33.68;31.59
50464;BME280;62167;38.552;-121.478;2022-07-30T00:12:09;100658.47;;;33.77;31.61
50464;BME280;62167;38.552;-121.478;2022-07-30T00:14:36;100655.28;;;33.61;31.17
50464;BME280;62167;38.552;-121.478;2022-07-30T00:17:02;100656.88;;;33.53;31.70
50464;BME280;62167;38.552;-121.478;2022-07-30T00:19:29;100661.66;;;33.53;31.71
50464;BME280;62167;38.552;-121.478;2022-07-30T00:21:55;100658.16;;;33.47;31.81
50464;BME280;62167;38.552;-121.478;2022-07-30T00:24:22;100657.88;;;33.26;32.57
50464;BME280;62167;38.552;-121.478;2022-07-30T00:26:48;100656.03;;;33.22;32.48
50464;BME280;62167;38.552;-121.478;2022-07-30T00:29:15;100649.63;;;33.21;32.98
50464;BME280;62167;38.552;-121.478;2022-07-30T00:31:41;100641.25;;;32.99;32.44
50464;BME280;62167;38.552;-121.478;2022-07-30T00:34:07;100653.91;;;32.83;33.04
50464;BME280;62167;38.552;-121.478;2022-07-30T00:36:33;100650.63;;;32.80;33.16
50464;BME280;62167;38.552;-121.478;2022-07-30T00:39:00;100649.09;;;32.74;33.17
50464;BME280;62167;38.552;-121.478;2022-07-30T00:41:27;100654.66;;;32.74;32.85
50464;BME280;62167;38.552;-121.478;2022-07-30T00:43:53;100652.59;;;32.80;32.94
50464;BME280;62167;38.552;-121.478;2022-07-30T00:46:19;100660.78;;;32.76;33.00
50464;BME280;62167;38.552;-121.478;2022-07-30T00:48:46;100655.44;;;32.66;32.84
50464;BME280;62167;38.552;-121.478;2022-07-30T00:51:12;100655.03;;;32.59;33.91
50464;BME280;62167;38.552;-121.478;2022-07-30T00:53:38;100645.53;;;32.60;34.03
50464;BME280;62167;38.552;-121.478;2022-07-30T00:56:04;100648.34;;;32.60;33.65
50464;BME280;62167;38.552;-121.478;2022-07-30T00:58:31;100654.28;;;32.45;34.02
50464;BME280;62167;38.552;-121.478;2022-07-30T01:00:57;100646.03;;;32.40;33.92
50464;BME280;62167;38.552;-121.478;2022-07-30T01:03:24;100644.56;;;32.42;34.16
50464;BME280;62167;38.552;-121.478;2022-07-30T01:05:50;100647.34;;;32.28;34.32
50464;BME280;62167;38.552;-121.478;2022-07-30T01:08:16;100641.50;;;32.02;34.22
50464;BME280;62167;38.552;-121.478;2022-07-30T01:10:46;100649.78;;;31.94;34.36
50464;BME280;62167;38.552;-121.478;2022-07-30T01:13:12;100648.31;;;31.83;35.01
50464;BME280;62167;38.552;-121.478;2022-07-30T01:15:38;100644.88;;;31.72;35.25
50464;BME280;62167;38.552;-121.478;2022-07-30T01:18:07;100646.53;;;31.73;36.04
50464;BME280;62167;38.552;-121.478;2022-07-30T01:20:47;100649.13;;;31.69;35.59
50464;BME280;62167;38.552;-121.478;2022-07-30T01:23:30;100642.03;;;31.63;35.80
50464;BME280;62167;38.552;-121.478;2022-07-30T01:26:17;100638.09;;;31.64;36.04
50464;BME280;62167;38.552;-121.478;2022-07-30T01:28:48;100635.81;;;31.66;36.09
50464;BME280;62167;38.552;-121.478;2022-07-30T01:31:18;100628.09;;;31.63;36.35
50464;BME280;62167;38.552;-121.478;2022-07-30T01:33:48;100628.28;;;31.53;36.41
50464;BME280;62167;38.552;-121.478;2022-07-30T01:36:17;100622.91;;;31.43;36.57
50464;BME280;62167;38.552;-121.478;2022-07-30T01:38:46;100620.78;;;31.21;36.77
50464;BME280;62167;38.552;-121.478;2022-07-30T01:41:14;100632.09;;;31.11;36.48
50464;BME280;62167;38.552;-121.478;2022-07-30T01:43:42;100639.69;;;31.05;36.78
50464;BME280;62167;38.552;-121.478;2022-07-30T01:46:10;100646.34;;;30.90;37.31
50464;BME280;62167;38.552;-121.478;2022-07-30T01:48:39;100645.09;;;30.83;37.91
50464;BME280;62167;38.552;-121.478;2022-07-30T01:51:10;100632.59;;;30.61;37.93
50464;BME280;62167;38.552;-121.478;2022-07-30T01:53:38;100634.13;;;30.35;37.91
50464;BME280;62167;38.552;-121.478;2022-07-30T01:56:07;100632.69;;;30.18;38.04
50464;BME280;62167;38.552;-121.478;2022-07-30T01:58:36;100638.16;;;29.99;38.38
50464;BME280;62167;38.552;-121.478;2022-07-30T02:01:03;100653.00;;;29.90;38.66
50464;BME280;62167;38.552;-121.478;2022-07-30T02:03:30;100662.03;;;29.53;38.90
50464;BME280;62167;38.552;-121.478;2022-07-30T02:06:01;100650.66;;;29.49;39.31
50464;BME280;62167;38.552;-121.478;2022-07-30T02:08:44;100632.72;;;29.41;39.40
50464;BME280;62167;38.552;-121.478;2022-07-30T02:11:17;100637.50;;;29.36;39.44
50464;BME280;62167;38.552;-121.478;2022-07-30T02:14:23;100653.94;;;29.27;39.69
50464;BME280;62167;38.552;-121.478;2022-07-30T02:16:53;100655.34;;;29.25;40.26
50464;BME280;62167;38.552;-121.478;2022-07-30T02:19:27;100666.53;;;29.14;39.98
50464;BME280;62167;38.552;-121.478;2022-07-30T02:22:00;100656.66;;;29.03;40.57
50464;BME280;62167;38.552;-121.478;2022-07-30T02:24:31;100668.47;;;28.80;40.55
50464;BME280;62167;38.552;-121.478;2022-07-30T02:27:13;100662.72;;;28.71;40.69
50464;BME280;62167;38.552;-121.478;2022-07-30T02:29:42;100671.88;;;28.66;40.69
50464;BME280;62167;38.552;-121.478;2022-07-30T02:32:12;100666.94;;;28.58;40.48
50464;BME280;62167;38.552;-121.478;2022-07-30T02:34:40;100676.22;;;28.33;41.12
50464;BME280;62167;38.552;-121.478;2022-07-30T02:37:09;100674.31;;;28.29;41.51
50464;BME280;62167;38.552;-121.478;2022-07-30T02:39:41;100676.59;;;28.11;42.07
50464;BME280;62167;38.552;-121.478;2022-07-30T02:42:08;100677.47;;;28.02;41.86
50464;BME280;62167;38.552;-121.478;2022-07-30T02:44:36;100691.59;;;28.00;42.18
50464;BME280;62167;38.552;-121.478;2022-07-30T02:47:04;100694.66;;;28.04;42.11
50464;BME280;62167;38.552;-121.478;2022-07-30T02:49:32;100694.94;;;27.97;42.36
50464;BME280;62167;38.552;-121.478;2022-07-30T02:52:01;100701.66;;;27.71;42.72
50464;BME280;62167;38.552;-121.478;2022-07-30T02:54:29;100704.13;;;27.62;43.71
50464;BME280;62167;38.552;-121.478;2022-07-30T02:56:56;100702.78;;;27.44;43.21
50464;BME280;62167;38.552;-121.478;2022-07-30T02:59:26;100713.03;;;27.23;43.60
50464;BME280;62167;38.552;-121.478;2022-07-30T03:01:54;100726.84;;;27.08;43.87
50464;BME280;62167;38.552;-121.478;2022-07-30T03:04:21;100727.38;;;27.05;43.98
50464;BME280;62167;38.552;-121.478;2022-07-30T03:06:51;100722.94;;;26.94;44.39
50464;BME280;62167;38.552;-121.478;2022-07-30T03:09:19;100723.69;;;26.63;44.94
50464;BME280;62167;38.552;-121.478;2022-07-30T03:11:48;100723.28;;;26.29;45.73
50464;BME280;62167;38.552;-121.478;2022-07-30T03:14:16;100719.63;;;26.13;47.12
50464;BME280;62167;38.552;-121.478;2022-07-30T03:16:47;100726.41;;;25.91;47.05
50464;BME280;62167;38.552;-121.478;2022-07-30T03:19:19;100731.31;;;25.83;47.58
50464;BME280;62167;38.552;-121.478;2022-07-30T03:21:48;100735.66;;;25.74;47.62
50464;BME280;62167;38.552;-121.478;2022-07-30T03:24:16;100730.31;;;25.57;47.38
50464;BME280;62167;38.552;-121.478;2022-07-30T03:26:45;100730.94;;;25.32;47.91
50464;BME280;62167;38.552;-121.478;2022-07-30T03:29:12;100725.94;;;25.24;49.36
50464;BME280;62167;38.552;-121.478;2022-07-30T03:31:39;100723.91;;;25.15;49.24
50464;BME280;62167;38.552;-121.478;2022-07-30T03:34:06;100719.63;;;25.02;49.21
50464;BME280;62167;38.552;-121.478;2022-07-30T03:36:34;100715.16;;;24.96;50.56
50464;BME280;62167;38.552;-121.478;2022-07-30T03:39:02;100720.72;;;24.74;49.77
50464;BME280;62167;38.552;-121.478;2022-07-30T03:41:30;100719.59;;;24.70;49.37
50464;BME280;62167;38.552;-121.478;2022-07-30T03:43:58;100725.25;;;24.36;50.36
50464;BME280;62167;38.552;-121.478;2022-07-30T03:46:26;100730.50;;;24.38;50.33
50464;BME280;62167;38.552;-121.478;2022-07-30T03:48:53;100735.66;;;24.34;50.08
50464;BME280;62167;38.552;-121.478;2022-07-30T03:51:21;100720.63;;;24.20;50.65
50464;BME280;62167;38.552;-121.478;2022-07-30T03:53:48;100728.75;;;24.10;50.71
50464;BME280;62167;38.552;-121.478;2022-07-30T03:56:17;100734.94;;;24.00;51.30
50464;BME280;62167;38.552;-121.478;2022-07-30T03:58:44;100730.75;;;23.75;51.42
50464;BME280;62167;38.552;-121.478;2022-07-30T04:01:10;100743.41;;;23.76;51.37
50464;BME280;62167;38.552;-121.478;2022-07-30T04:03:36;100748.41;;;23.63;52.18
50464;BME280;62167;38.552;-121.478;2022-07-30T04:06:03;100753.00;;;23.57;52.11
50464;BME280;62167;38.552;-121.478;2022-07-30T04:08:30;100763.91;;;23.52;51.89
50464;BME280;62167;38.552;-121.478;2022-07-30T04:10:56;100759.09;;;23.42;52.32
50464;BME280;62167;38.552;-121.478;2022-07-30T04:13:23;100776.81;;;23.35;52.53
50464;BME280;62167;38.552;-121.478;2022-07-30T04:16:17;100783.63;;;23.15;53.08
50464;BME280;62167;38.552;-121.478;2022-07-30T04:18:49;100791.66;;;23.05;53.51
50464;BME280;62167;38.552;-121.478;2022-07-30T04:21:18;100791.16;;;22.91;53.29
50464;BME280;62167;38.552;-121.478;2022-07-30T04:23:46;100805.16;;;22.78;53.79
50464;BME280;62167;38.552;-121.478;2022-07-30T04:26:16;100804.56;;;22.76;54.20
50464;BME280;62167;38.552;-121.478;2022-07-30T04:28:43;100806.25;;;22.65;54.15
50464;BME280;62167;38.552;-121.478;2022-07-30T04:31:09;100806.97;;;22.61;54.36
50464;BME280;62167;38.552;-121.478;2022-07-30T04:33:36;100820.06;;;22.42;54.76
50464;BME280;62167;38.552;-121.478;2022-07-30T04:36:07;100815.66;;;22.41;55.01
50464;BME280;62167;38.552;-121.478;2022-07-30T04:38:34;100819.81;;;22.32;54.91
50464;BME280;62167;38.552;-121.478;2022-07-30T04:41:00;100819.13;;;22.13;55.50
50464;BME280;62167;38.552;-121.478;2022-07-30T04:43:27;100827.47;;;22.06;55.59
50464;BME280;62167;38.552;-121.478;2022-07-30T04:45:53;100836.03;;;21.98;55.86
50464;BME280;62167;38.552;-121.478;2022-07-30T04:48:19;100832.72;;;21.96;56.65
50464;BME280;62167;38.552;-121.478;2022-07-30T04:50:48;100832.31;;;21.69;56.40
50464;BME280;62167;38.552;-121.478;2022-07-30T04:53:16;100850.97;;;21.48;57.71
50464;BME280;62167;38.552;-121.478;2022-07-30T04:55:46;100847.47;;;21.30;58.09
50464;BME280;62167;38.552;-121.478;2022-07-30T04:58:15;100853.31;;;21.33;57.80
50464;BME280;62167;38.552;-121.478;2022-07-30T05:00:44;100843.44;;;21.32;57.68
50464;BME280;62167;38.552;-121.478;2022-07-30T05:03:12;100841.59;;;21.26;58.14
50464;BME280;62167;38.552;-121.478;2022-07-30T05:05:40;100841.91;;;21.18;58.27
50464;BME280;62167;38.552;-121.478;2022-07-30T05:08:06;100837.28;;;21.18;58.60
50464;BME280;62167;38.552;-121.478;2022-07-30T05:10:33;100835.53;;;21.24;58.70
50464;BME280;62167;38.552;-121.478;2022-07-30T05:13:00;100839.66;;;21.15;58.21
50464;BME280;62167;38.552;-121.478;2022-07-30T05:15:26;100839.81;;;21.20;58.16
50464;BME280;62167;38.552;-121.478;2022-07-30T05:17:54;100836.78;;;21.10;58.48
50464;BME280;62167;38.552;-121.478;2022-07-30T05:20:21;100838.31;;;21.06;58.86
50464;BME280;62167;38.552;-121.478;2022-07-30T05:22:47;100844.09;;;20.97;59.19
50464;BME280;62167;38.552;-121.478;2022-07-30T05:25:13;100842.44;;;20.78;59.95
50464;BME280;62167;38.552;-121.478;2022-07-30T05:27:39;100849.31;;;20.69;59.99
50464;BME280;62167;38.552;-121.478;2022-07-30T05:30:06;100844.97;;;20.61;60.37
50464;BME280;62167;38.552;-121.478;2022-07-30T05:32:33;100847.19;;;20.53;60.89
50464;BME280;62167;38.552;-121.478;2022-07-30T05:34:59;100848.06;;;20.28;61.40
50464;BME280;62167;38.552;-121.478;2022-07-30T05:37:25;100843.56;;;20.15;61.57
50464;BME280;62167;38.552;-121.478;2022-07-30T05:39:51;100845.06;;;20.11;61.81
50464;BME280;62167;38.552;-121.478;2022-07-30T05:42:18;100842.00;;;20.01;62.23
50464;BME280;62167;38.552;-121.478;2022-07-30T05:44:45;100831.97;;;19.95;62.37
50464;BME280;62167;38.552;-121.478;2022-07-30T05:47:11;100834.00;;;19.81;62.81
50464;BME280;62167;38.552;-121.478;2022-07-30T05:49:37;100842.19;;;19.50;63.85
50464;BME280;62167;38.552;-121.478;2022-07-30T05:52:03;100849.16;;;19.45;63.92
50464;BME280;62167;38.552;-121.478;2022-07-30T05:54:30;100844.59;;;19.39;64.10
50464;BME280;62167;38.552;-121.478;2022-07-30T05:56:56;100855.44;;;19.21;64.70
50464;BME280;62167;38.552;-121.478;2022-07-30T05:59:22;100859.66;;;19.17;64.95
50464;BME280;62167;38.552;-121.478;2022-07-30T06:01:48;100869.94;;;19.15;65.13
50464;BME280;62167;38.552;-121.478;2022-07-30T06:04:15;100862.41;;;19.10;65.51
50464;BME280;62167;38.552;-121.478;2022-07-30T06:06:41;100867.09;;;19.03;65.71
50464;BME280;62167;38.552;-121.478;2022-07-30T06:09:07;100864.34;;;19.03;65.75
50464;BME280;62167;38.552;-121.478;2022-07-30T06:11:34;100867.13;;;18.97;66.11
50464;BME280;62167;38.552;-121.478;2022-07-30T06:14:00;100879.16;;;18.82;66.54
50464;BME280;62167;38.552;-121.478;2022-07-30T06:16:26;100874.53;;;18.83;66.33
50464;BME280;62167;38.552;-121.478;2022-07-30T06:18:52;100862.53;;;18.84;66.65
50464;BME280;62167;38.552;-121.478;2022-07-30T06:21:19;100869.47;;;18.86;66.57
50464;BME280;62167;38.552;-121.478;2022-07-30T06:23:45;100871.75;;;18.89;66.44
50464;BME280;62167;38.552;-121.478;2022-07-30T06:26:11;100873.66;;;18.89;66.64
50464;BME280;62167;38.552;-121.478;2022-07-30T06:28:38;100870.16;;;18.69;67.39
50464;BME280;62167;38.552;-121.478;2022-07-30T06:31:05;100869.31;;;18.61;67.57
50464;BME280;62167;38.552;-121.478;2022-07-30T06:33:31;100873.34;;;18.52;67.89
50464;BME280;62167;38.552;-121.478;2022-07-30T06:35:57;100888.69;;;18.47;68.14
50464;BME280;62167;38.552;-121.478;2022-07-30T06:38:24;100891.19;;;18.48;68.19
50464;BME280;62167;38.552;-121.478;2022-07-30T06:40:50;100889.94;;;18.37;68.39
50464;BME280;62167;38.552;-121.478;2022-07-30T06:43:16;100900.47;;;18.27;68.82
50464;BME280;62167;38.552;-121.478;2022-07-30T06:45:44;100902.34;;;18.13;69.36
50464;BME280;62167;38.552;-121.478;2022-07-30T06:48:10;100914.31;;;18.06;69.60
50464;BME280;62167;38.552;-121.478;2022-07-30T06:50:36;100902.78;;;18.10;69.56
50464;BME280;62167;38.552;-121.478;2022-07-30T06:53:03;100899.66;;;18.00;69.78
50464;BME280;62167;38.552;-121.478;2022-07-30T06:55:29;100910.94;;;18.04;69.67
50464;BME280;62167;38.552;-121.478;2022-07-30T06:58:07;100912.63;;;17.98;69.84
50464;BME280;62167;38.552;-121.478;2022-07-30T07:00:33;100916.41;;;17.91;70.22
50464;BME280;62167;38.552;-121.478;2022-07-30T07:02:59;100918.50;;;17.88;70.47
50464;BME280;62167;38.552;-121.478;2022-07-30T07:05:25;100925.63;;;17.76;70.79
50464;BME280;62167;38.552;-121.478;2022-07-30T07:07:55;100921.41;;;17.74;71.04
50464;BME280;62167;38.552;-121.478;2022-07-30T07:10:21;100933.78;;;17.70;71.10
50464;BME280;62167;38.552;-121.478;2022-07-30T07:12:48;100924.31;;;17.59;71.66
50464;BME280;62167;38.552;-121.478;2022-07-30T07:15:14;100924.28;;;17.52;72.08
50464;BME280;62167;38.552;-121.478;2022-07-30T07:17:40;100924.09;;;17.54;71.80
50464;BME280;62167;38.552;-121.478;2022-07-30T07:20:07;100918.44;;;17.55;71.58
50464;BME280;62167;38.552;-121.478;2022-07-30T07:22:33;100922.41;;;17.53;71.84
50464;BME280;62167;38.552;-121.478;2022-07-30T07:24:59;100917.78;;;17.47;72.33
50464;BME280;62167;38.552;-121.478;2022-07-30T07:27:25;100940.63;;;17.39;72.47
50464;BME280;62167;38.552;-121.478;2022-07-30T07:29:52;100933.69;;;17.36;72.57
50464;BME280;62167;38.552;-121.478;2022-07-30T07:32:18;100935.94;;;17.26;72.95
50464;BME280;62167;38.552;-121.478;2022-07-30T07:34:44;100935.94;;;17.26;73.10
50464;BME280;62167;38.552;-121.478;2022-07-30T07:37:10;100936.78;;;17.27;72.87
50464;BME280;62167;38.552;-121.478;2022-07-30T07:39:36;100927.38;;;17.29;72.93
50464;BME280;62167;38.552;-121.478;2022-07-30T07:42:03;100924.22;;;17.26;72.96
50464;BME280;62167;38.552;-121.478;2022-07-30T07:44:29;100929.66;;;17.26;72.83
50464;BME280;62167;38.552;-121.478;2022-07-30T07:46:55;100920.00;;;17.17;73.18
50464;BME280;62167;38.552;-121.478;2022-07-30T07:49:21;100921.66;;;17.18;73.30
50464;BME280;62167;38.552;-121.478;2022-07-30T07:51:48;100915.59;;;17.09;73.47
50464;BME280;62167;38.552;-121.478;2022-07-30T07:54:14;100920.38;;;17.07;73.48
50464;BME280;62167;38.552;-121.478;2022-07-30T07:56:41;100926.25;;;17.04;73.79
50464;BME280;62167;38.552;-121.478;2022-07-30T07:59:07;100918.25;;;17.02;73.73
50464;BME280;62167;38.552;-121.478;2022-07-30T08:01:33;100917.84;;;16.99;74.15
50464;BME280;62167;38.552;-121.478;2022-07-30T08:03:59;100918.88;;;16.98;74.27
50464;BME280;62167;38.552;-121.478;2022-07-30T08:06:26;100931.41;;;16.92;74.45
50464;BME280;62167;38.552;-121.478;2022-07-30T08:08:52;100929.13;;;16.89;74.49
50464;BME280;62167;38.552;-121.478;2022-07-30T08:11:19;100920.72;;;16.91;74.67
50464;BME280;62167;38.552;-121.478;2022-07-30T08:13:45;100932.00;;;16.88;74.70
50464;BME280;62167;38.552;-121.478;2022-07-30T08:16:11;100929.28;;;16.88;74.94
50464;BME280;62167;38.552;-121.478;2022-07-30T08:18:39;100934.56;;;16.89;74.85
50464;BME280;62167;38.552;-121.478;2022-07-30T08:21:05;100930.56;;;16.85;75.05
50464;BME280;62167;38.552;-121.478;2022-07-30T08:23:33;100925.56;;;16.89;74.98
50464;BME280;62167;38.552;-121.478;2022-07-30T08:25:59;100917.78;;;16.85;74.90
50464;BME280;62167;38.552;-121.478;2022-07-30T08:28:25;100928.66;;;16.85;75.19
50464;BME280;62167;38.552;-121.478;2022-07-30T08:30:52;100926.16;;;16.84;75.20
50464;BME280;62167;38.552;-121.478;2022-07-30T08:33:18;100926.75;;;16.79;75.45
50464;BME280;62167;38.552;-121.478;2022-07-30T08:35:44;100931.97;;;16.74;75.62
50464;BME280;62167;38.552;-121.478;2022-07-30T08:38:12;100920.66;;;16.77;75.55
50464;BME280;62167;38.552;-121.478;2022-07-30T08:40:38;100921.28;;;16.73;75.78
50464;BME280;62167;38.552;-121.478;2022-07-30T08:43:06;100922.88;;;16.67;75.93
50464;BME280;62167;38.552;-121.478;2022-07-30T08:45:33;100934.56;;;16.61;76.07
50464;BME280;62167;38.552;-121.478;2022-07-30T08:48:01;100933.50;;;16.62;76.13
50464;BME280;62167;38.552;-121.478;2022-07-30T08:50:29;100932.50;;;16.63;76.40
50464;BME280;62167;38.552;-121.478;2022-07-30T08:52:55;100924.50;;;16.55;76.60
50464;BME280;62167;38.552;-121.478;2022-07-30T08:55:22;100927.22;;;16.55;76.70
50464;BME280;62167;38.552;-121.478;2022-07-30T08:57:49;100927.41;;;16.53;76.68
50464;BME280;62167;38.552;-121.478;2022-07-30T09:00:16;100917.31;;;16.47;77.04
50464;BME280;62167;38.552;-121.478;2022-07-30T09:02:43;100905.00;;;16.51;77.26
50464;BME280;62167;38.552;-121.478;2022-07-30T09:05:10;100904.41;;;16.56;76.89
50464;BME280;62167;38.552;-121.478;2022-07-30T09:07:37;100909.44;;;16.59;76.85
50464;BME280;62167;38.552;-121.478;2022-07-30T09:10:05;100911.72;;;16.55;76.76
50464;BME280;62167;38.552;-121.478;2022-07-30T09:12:43;100914.84;;;16.52;77.17
50464;BME280;62167;38.552;-121.478;2022-07-30T09:15:16;100916.31;;;16.55;76.86
50464;BME280;62167;38.552;-121.478;2022-07-30T09:17:59;100915.47;;;16.48;77.16
50464;BME280;62167;38.552;-121.478;2022-07-30T09:20:32;100906.84;;;16.44;77.51
50464;BME280;62167;38.552;-121.478;2022-07-30T09:23:01;100896.59;;;16.46;77.27
50464;BME280;62167;38.552;-121.478;2022-07-30T09:25:37;100896.44;;;16.48;77.74
50464;BME280;62167;38.552;-121.478;2022-07-30T09:28:04;100892.00;;;16.47;77.57
50464;BME280;62167;38.552;-121.478;2022-07-30T09:30:51;100890.97;;;16.48;77.59
50464;BME280;62167;38.552;-121.478;2022-07-30T09:33:41;100892.41;;;16.44;77.62
50464;BME280;62167;38.552;-121.478;2022-07-30T09:36:10;100894.91;;;16.39;77.73
50464;BME280;62167;38.552;-121.478;2022-07-30T09:38:49;100911.22;;;16.39;77.77
50464;BME280;62167;38.552;-121.478;2022-07-30T09:41:18;100906.97;;;16.29;78.35
50464;BME280;62167;38.552;-121.478;2022-07-30T09:43:50;100912.66;;;16.34;77.86
50464;BME280;62167;38.552;-121.478;2022-07-30T09:46:17;100927.91;;;16.35;78.12
50464;BME280;62167;38.552;-121.478;2022-07-30T09:48:44;100938.78;;;16.35;78.14
50464;BME280;62167;38.552;-121.478;2022-07-30T09:51:13;100952.84;;;16.39;78.20
50464;BME280;62167;38.552;-121.478;2022-07-30T09:53:56;100949.53;;;16.44;77.90
50464;BME280;62167;38.552;-121.478;2022-07-30T09:56:27;100952.50;;;16.49;77.66
50464;BME280;62167;38.552;-121.478;2022-07-30T09:58:54;100951.69;;;16.55;77.45
50464;BME280;62167;38.552;-121.478;2022-07-30T10:01:21;100955.44;;;16.54;77.09
50464;BME280;62167;38.552;-121.478;2022-07-30T10:03:47;100952.91;;;16.52;77.50
50464;BME280;62167;38.552;-121.478;2022-07-30T10:06:14;100964.84;;;16.51;77.33
50464;BME280;62167;38.552;-121.478;2022-07-30T10:08:49;100969.22;;;16.52;77.54
50464;BME280;62167;38.552;-121.478;2022-07-30T10:11:19;100965.03;;;16.50;77.56
50464;BME280;62167;38.552;-121.478;2022-07-30T10:13:54;100971.94;;;16.52;77.33
50464;BME280;62167;38.552;-121.478;2022-07-30T10:16:24;100971.78;;;16.54;77.55
50464;BME280;62167;38.552;-121.478;2022-07-30T10:18:51;100958.75;;;16.49;77.22
50464;BME280;62167;38.552;-121.478;2022-07-30T10:21:18;100972.41;;;16.56;77.15
50464;BME280;62167;38.552;-121.478;2022-07-30T10:23:45;100979.94;;;16.54;77.26
50464;BME280;62167;38.552;-121.478;2022-07-30T10:26:11;100975.72;;;16.51;77.12
50464;BME280;62167;38.552;-121.478;2022-07-30T10:28:39;100980.97;;;16.53;77.14
50464;BME280;62167;38.552;-121.478;2022-07-30T10:31:06;100971.13;;;16.52;77.41
50464;BME280;62167;38.552;-121.478;2022-07-30T10:33:33;100972.16;;;16.51;77.53
50464;BME280;62167;38.552;-121.478;2022-07-30T10:35:59;100979.28;;;16.52;77.53
50464;BME280;62167;38.552;-121.478;2022-07-30T10:38:31;100974.41;;;16.47;77.59
50464;BME280;62167;38.552;-121.478;2022-07-30T10:46:41;100973.94;;;16.37;77.77
50464;BME280;62167;38.552;-121.478;2022-07-30T10:49:10;100971.44;;;16.42;77.54
50464;BME280;62167;38.552;-121.478;2022-07-30T10:51:48;100973.41;;;16.48;77.33
50464;BME280;62167;38.552;-121.478;2022-07-30T11:02:24;100977.56;;;16.44;77.28
50464;BME280;62167;38.552;-121.478;2022-07-30T11:07:43;100976.72;;;16.44;77.16
50464;BME280;62167;38.552;-121.478;2022-07-30T11:13:02;100973.50;;;16.33;77.70
50464;BME280;62167;38.552;-121.478;2022-07-30T11:15:51;100978.53;;;16.37;77.46
50464;BME280;62167;38.552;-121.478;2022-07-30T11:18:20;100973.94;;;16.37;77.64
50464;BME280;62167;38.552;-121.478;2022-07-30T11:21:18;100977.91;;;16.34;77.82
50464;BME280;62167;38.552;-121.478;2022-07-30T11:23:45;100964.94;;;16.37;77.55
50464;BME280;62167;38.552;-121.478;2022-07-30T11:29:33;100967.84;;;16.35;77.45
50464;BME280;62167;38.552;-121.478;2022-07-30T11:32:31;100967.41;;;16.31;77.70
50464;BME280;62167;38.552;-121.478;2022-07-30T11:38:00;100964.69;;;16.31;77.76
50464;BME280;62167;38.552;-121.478;2022-07-30T11:40:31;100976.00;;;16.35;77.43
50464;BME280;62167;38.552;-121.478;2022-07-30T11:43:17;100979.53;;;16.29;77.59
50464;BME280;62167;38.552;-121.478;2022-07-30T11:45:46;100974.31;;;16.27;77.76
50464;BME280;62167;38.552;-121.478;2022-07-30T11:48:15;100977.03;;;16.27;77.83
50464;BME280;62167;38.552;-121.478;2022-07-30T11:50:42;100967.16;;;16.26;77.72
50464;BME280;62167;38.552;-121.478;2022-07-30T11:53:13;100975.78;;;16.30;77.48
50464;BME280;62167;38.552;-121.478;2022-07-30T11:55:42;100976.59;;;16.30;77.76
50464;BME280;62167;38.552;-121.478;2022-07-30T11:58:32;100979.53;;;16.29;77.39
50464;BME280;62167;38.552;-121.478;2022-07-30T12:01:06;100980.94;;;16.25;77.97
50464;BME280;62167;38.552;-121.478;2022-07-30T12:03:40;100974.22;;;16.21;78.00
50464;BME280;62167;38.552;-121.478;2022-07-30T12:06:08;100983.22;;;16.21;77.97
50464;BME280;62167;38.552;-121.478;2022-07-30T12:08:42;100979.88;;;16.19;78.13
50464;BME280;62167;38.552;-121.478;2022-07-30T12:11:09;100985.69;;;16.16;77.91
50464;BME280;62167;38.552;-121.478;2022-07-30T12:13:36;100982.97;;;16.16;78.22
50464;BME280;62167;38.552;-121.478;2022-07-30T12:16:11;100992.94;;;16.09;78.46
50464;BME280;62167;38.552;-121.478;2022-07-30T12:18:37;100985.25;;;16.13;78.47
50464;BME280;62167;38.552;-121.478;2022-07-30T12:21:05;100980.19;;;16.09;78.15
50464;BME280;62167;38.552;-121.478;2022-07-30T12:23:41;100979.34;;;16.09;78.47
50464;BME280;62167;38.552;-121.478;2022-07-30T12:26:19;100993.31;;;16.06;78.37
50464;BME280;62167;38.552;-121.478;2022-07-30T12:28:46;101004.19;;;16.06;78.47
50464;BME280;62167;38.552;-121.478;2022-07-30T12:31:14;101007.97;;;16.05;78.44
50464;BME280;62167;38.552;-121.478;2022-07-30T12:33:41;101009.47;;;16.07;78.43
50464;BME280;62167;38.552;-121.478;2022-07-30T12:36:07;101011.59;;;16.12;78.03
50464;BME280;62167;38.552;-121.478;2022-07-30T12:38:45;101024.94;;;16.07;78.37
50464;BME280;62167;38.552;-121.478;2022-07-30T12:41:16;101026.09;;;15.98;78.82
50464;BME280;62167;38.552;-121.478;2022-07-30T12:43:47;101019.88;;;16.04;78.70
50464;BME280;62167;38.552;-121.478;2022-07-30T12:46:26;101033.25;;;16.05;78.63
50464;BME280;62167;38.552;-121.478;2022-07-30T12:48:55;101037.38;;;16.01;78.53
50464;BME280;62167;38.552;-121.478;2022-07-30T12:51:26;101032.56;;;15.97;78.95
50464;BME280;62167;38.552;-121.478;2022-07-30T12:53:54;101038.38;;;15.94;79.00
50464;BME280;62167;38.552;-121.478;2022-07-30T12:56:26;101041.72;;;15.96;78.92